sensor_id;sensor_type;location;lat;lon;timestamp;pressure;altitude;pressure_sealevel;temperature;humidity
55759;BME280;41678;52.126;20.664;2023-05-03T00:04:31;101011.06;;;11.44;64.87
55759;BME280;41678;52.126;20.664;2023-05-03T00:09:51;101024.22;;;11.47;65.34
55759;BME280;41678;52.126;20.664;2023-05-03T00:15:11;101013.75;;;11.27;65.35
55759;BME280;41678;52.126;20.664;2023-05-03T00:20:31;101002.34;;;11.17;65.01
55759;BME280;41678;52.126;20.664;2023-05-03T00:25:55;101002.34;;;11.17;65.11
55759;BME280;41678;52.126;20.664;2023-05-03T00:31:15;101000.63;;;11.10;64.86
55759;BME280;41678;52.126;20.664;2023-05-03T00:36:34;100999.75;;;11.10;65.09
55759;BME280;41678;52.126;20.664;2023-05-03T00:41:58;101008.53;;;11.04;64.57
55759;BME280;41678;52.126;20.664;2023-05-03T00:47:19;101005.06;;;10.96;65.02
55759;BME280;41678;52.126;20.664;2023-05-03T00:52:39;101019.09;;;10.98;64.70
55759;BME280;41678;52.126;20.664;2023-05-03T00:58:00;101034.03;;;10.96;65.25
55759;BME280;41678;52.126;20.664;2023-05-03T01:03:20;101034.91;;;10.85;64.94
55759;BME280;41678;52.126;20.664;2023-05-03T01:08:46;101039.28;;;10.74;64.99
55759;BME280;41678;52.126;20.664;2023-05-03T01:14:31;101040.19;;;10.65;64.95
55759;BME280;41678;52.126;20.664;2023-05-03T01:19:57;101041.94;;;10.52;65.27
55759;BME280;41678;52.126;20.664;2023-05-03T01:25:19;101063.00;;;10.52;65.25
55759;BME280;41678;52.126;20.664;2023-05-03T01:30:40;101055.03;;;10.40;65.29
55759;BME280;41678;52.126;20.664;2023-05-03T01:36:15;101062.94;;;10.37;65.41
55759;BME280;41678;52.126;20.664;2023-05-03T01:41:41;101049.78;;;10.26;65.61
55759;BME280;41678;52.126;20.664;2023-05-03T01:47:01;101066.44;;;10.23;65.91
55759;BME280;41678;52.126;20.664;2023-05-03T01:52:22;101058.50;;;10.07;65.57
55759;BME280;41678;52.126;20.664;2023-05-03T01:57:41;101043.56;;;9.99;65.31
55759;BME280;41678;52.126;20.664;2023-05-03T02:03:01;101052.34;;;10.04;65.33
55759;BME280;41678;52.126;20.664;2023-05-03T02:08:20;101050.56;;;10.03;65.65
55759;BME280;41678;52.126;20.664;2023-05-03T02:13:40;101056.69;;;9.97;65.48
55759;BME280;41678;52.126;20.664;2023-05-03T02:19:00;101067.22;;;9.97;65.79
55759;BME280;41678;52.126;20.664;2023-05-03T02:24:19;101066.28;;;9.83;65.89
55759;BME280;41678;52.126;20.664;2023-05-03T02:29:42;101071.56;;;9.90;65.99
55759;BME280;41678;52.126;20.664;2023-05-03T02:35:02;101064.53;;;9.82;65.96
55759;BME280;41678;52.126;20.664;2023-05-03T02:40:22;101054.84;;;9.70;65.56
55759;BME280;41678;52.126;20.664;2023-05-03T02:45:42;101046.91;;;9.60;66.03
55759;BME280;41678;52.126;20.664;2023-05-03T02:51:04;101051.31;;;9.60;65.61
55759;BME280;41678;52.126;20.664;2023-05-03T02:56:24;101051.31;;;9.60;65.55
55759;BME280;41678;52.126;20.664;2023-05-03T03:01:45;101061.75;;;9.54;65.36
55759;BME280;41678;52.126;20.664;2023-05-03T03:07:06;101077.59;;;9.60;65.57
55759;BME280;41678;52.126;20.664;2023-05-03T03:12:26;101074.91;;;9.50;65.46
55759;BME280;41678;52.126;20.664;2023-05-03T03:17:48;101082.75;;;9.46;65.58
55759;BME280;41678;52.126;20.664;2023-05-03T03:23:08;101102.06;;;9.53;65.15
55759;BME280;41678;52.126;20.664;2023-05-03T03:28:28;101107.34;;;9.53;65.63
55759;BME280;41678;52.126;20.664;2023-05-03T03:33:51;101110.81;;;9.45;65.60
55759;BME280;41678;52.126;20.664;2023-05-03T03:39:13;101108.16;;;9.41;65.67
55759;BME280;41678;52.126;20.664;2023-05-03T03:44:34;101124.81;;;9.44;65.69
55759;BME280;41678;52.126;20.664;2023-05-03T03:49:55;101125.66;;;9.39;66.00
55759;BME280;41678;52.126;20.664;2023-05-03T03:55:15;101127.38;;;9.35;66.05
55759;BME280;41678;52.126;20.664;2023-05-03T04:00:36;101125.53;;;9.25;66.08
55759;BME280;41678;52.126;20.664;2023-05-03T04:06:03;101132.59;;;9.30;65.86
55759;BME280;41678;52.126;20.664;2023-05-03T04:11:23;101137.00;;;9.36;66.10
55759;BME280;41678;52.126;20.664;2023-05-03T04:16:48;101158.97;;;9.40;66.22
55759;BME280;41678;52.126;20.664;2023-05-03T04:22:09;101161.53;;;9.35;65.98
55759;BME280;41678;52.126;20.664;2023-05-03T04:27:29;101157.13;;;9.29;66.16
55759;BME280;41678;52.126;20.664;2023-05-03T04:32:50;101162.41;;;9.31;65.84
55759;BME280;41678;52.126;20.664;2023-05-03T04:38:13;101172.97;;;9.39;66.05
55759;BME280;41678;52.126;20.664;2023-05-03T04:43:33;101180.03;;;9.44;66.16
55759;BME280;41678;52.126;20.664;2023-05-03T04:48:53;101169.47;;;9.43;66.15
55759;BME280;41678;52.126;20.664;2023-05-03T04:54:13;101175.56;;;9.34;66.22
55759;BME280;41678;52.126;20.664;2023-05-03T04:59:33;101181.72;;;9.39;66.12
55759;BME280;41678;52.126;20.664;2023-05-03T05:04:53;101192.34;;;9.50;66.01
55759;BME280;41678;52.126;20.664;2023-05-03T05:10:14;101196.69;;;9.46;65.58
55759;BME280;41678;52.126;20.664;2023-05-03T05:15:34;101202.81;;;9.48;65.56
55759;BME280;41678;52.126;20.664;2023-05-03T05:20:54;101201.09;;;9.54;65.58
55759;BME280;41678;52.126;20.664;2023-05-03T05:26:15;101210.78;;;9.59;65.40
55759;BME280;41678;52.126;20.664;2023-05-03T05:31:36;101219.53;;;9.55;65.31
55759;BME280;41678;52.126;20.664;2023-05-03T05:36:58;101215.19;;;9.62;65.32
55759;BME280;41678;52.126;20.664;2023-05-03T05:42:19;101221.34;;;9.64;65.42
55759;BME280;41678;52.126;20.664;2023-05-03T05:47:40;101224.00;;;9.67;65.13
55759;BME280;41678;52.126;20.664;2023-05-03T05:53:01;101234.53;;;9.66;65.15
55759;BME280;41678;52.126;20.664;2023-05-03T05:58:24;101228.44;;;9.71;65.16
55759;BME280;41678;52.126;20.664;2023-05-03T06:03:47;101241.59;;;9.77;65.11
55759;BME280;41678;52.126;20.664;2023-05-03T06:09:07;101244.25;;;9.81;65.14
55759;BME280;41678;52.126;20.664;2023-05-03T06:14:27;101245.16;;;9.84;65.16
55759;BME280;41678;52.126;20.664;2023-05-03T06:19:48;101254.00;;;9.94;64.81
55759;BME280;41678;52.126;20.664;2023-05-03T06:25:12;101255.75;;;9.95;64.26
55759;BME280;41678;52.126;20.664;2023-05-03T06:30:36;101264.63;;;10.16;63.72
55759;BME280;41678;52.126;20.664;2023-05-03T06:36:01;101259.47;;;10.27;63.09
55759;BME280;41678;52.126;20.664;2023-05-03T06:41:21;101267.38;;;10.34;62.08
55759;BME280;41678;52.126;20.664;2023-05-03T06:46:40;101261.31;;;10.43;62.49
55759;BME280;41678;52.126;20.664;2023-05-03T06:52:00;101270.13;;;10.50;62.54
55759;BME280;41678;52.126;20.664;2023-05-03T06:57:20;101263.16;;;10.65;61.84
55759;BME280;41678;52.126;20.664;2023-05-03T07:02:40;101271.97;;;10.70;62.07
55759;BME280;41678;52.126;20.664;2023-05-03T07:08:00;101276.34;;;10.71;62.36
55759;BME280;41678;52.126;20.664;2023-05-03T07:13:21;101275.50;;;10.80;62.58
55759;BME280;41678;52.126;20.664;2023-05-03T07:18:40;101279.94;;;10.90;61.98
55759;BME280;41678;52.126;20.664;2023-05-03T07:24:00;101279.06;;;10.97;61.70
55759;BME280;41678;52.126;20.664;2023-05-03T07:36:42;101285.28;;;11.24;60.07
55759;BME280;41678;52.126;20.664;2023-05-03T07:42:02;101288.81;;;11.28;59.76
55759;BME280;41678;52.126;20.664;2023-05-03T07:47:21;101286.19;;;11.48;60.02
55759;BME280;41678;52.126;20.664;2023-05-03T07:52:41;101294.13;;;11.53;60.00
55759;BME280;41678;52.126;20.664;2023-05-03T07:58:01;101288.84;;;11.59;59.63
55759;BME280;41678;52.126;20.664;2023-05-03T08:03:22;101285.31;;;11.71;59.06
55759;BME280;41678;52.126;20.664;2023-05-03T08:08:42;101286.19;;;11.85;58.91
55759;BME280;41678;52.126;20.664;2023-05-03T08:14:02;101283.53;;;11.85;58.75
55759;BME280;41678;52.126;20.664;2023-05-03T08:19:22;101285.28;;;11.94;57.65
55759;BME280;41678;52.126;20.664;2023-05-03T08:24:41;101287.94;;;12.13;57.03
55759;BME280;41678;52.126;20.664;2023-05-03T08:30:01;101297.59;;;12.26;57.37
55759;BME280;41678;52.126;20.664;2023-05-03T08:35:22;101292.31;;;12.26;55.86
55759;BME280;41678;52.126;20.664;2023-05-03T08:40:44;101293.13;;;12.45;55.96
55759;BME280;41678;52.126;20.664;2023-05-03T08:46:10;101301.91;;;12.52;53.95
55759;BME280;41678;52.126;20.664;2023-05-03T08:51:30;101305.44;;;12.54;54.26
55759;BME280;41678;52.126;20.664;2023-05-03T08:56:50;101302.78;;;12.64;54.04
55759;BME280;41678;52.126;20.664;2023-05-03T09:09:45;101308.91;;;12.75;51.44
55759;BME280;41678;52.126;20.664;2023-05-03T09:15:06;101314.16;;;12.81;52.45
55759;BME280;41678;52.126;20.664;2023-05-03T09:20:33;101310.56;;;12.88;52.36
55759;BME280;41678;52.126;20.664;2023-05-03T09:25:56;101300.91;;;12.86;51.13
55759;BME280;41678;52.126;20.664;2023-05-03T09:31:16;101306.13;;;12.97;51.79
55759;BME280;41678;52.126;20.664;2023-05-03T09:36:46;101307.88;;;13.01;51.11
55759;BME280;41678;52.126;20.664;2023-05-03T09:42:18;101317.59;;;13.00;51.35
55759;BME280;41678;52.126;20.664;2023-05-03T09:47:48;101317.59;;;13.00;52.32
55759;BME280;41678;52.126;20.664;2023-05-03T09:53:10;101309.66;;;12.96;50.99
55759;BME280;41678;52.126;20.664;2023-05-03T09:58:35;101311.44;;;12.97;51.00
55759;BME280;41678;52.126;20.664;2023-05-03T10:03:56;101314.97;;;12.96;50.82
55759;BME280;41678;52.126;20.664;2023-05-03T10:09:45;101307.94;;;12.92;51.29
55759;BME280;41678;52.126;20.664;2023-05-03T10:15:05;101309.63;;;13.02;50.73
55759;BME280;41678;52.126;20.664;2023-05-03T10:20:32;101298.22;;;12.95;50.33
55759;BME280;41678;52.126;20.664;2023-05-03T10:31:47;101303.44;;;13.03;50.40
55759;BME280;41678;52.126;20.664;2023-05-03T10:37:09;101301.69;;;13.07;50.42
55759;BME280;41678;52.126;20.664;2023-05-03T10:42:30;101304.28;;;13.16;50.65
55759;BME280;41678;52.126;20.664;2023-05-03T10:53:39;101305.97;;;13.25;50.01
55759;BME280;41678;52.126;20.664;2023-05-03T10:59:01;101305.97;;;13.28;50.16
55759;BME280;41678;52.126;20.664;2023-05-03T11:09:44;101311.19;;;13.43;51.03
55759;BME280;41678;52.126;20.664;2023-05-03T11:15:05;101314.66;;;13.49;50.78
55759;BME280;41678;52.126;20.664;2023-05-03T11:20:25;101311.97;;;13.53;50.08
55759;BME280;41678;52.126;20.664;2023-05-03T11:25:45;101309.31;;;13.58;49.52
55759;BME280;41678;52.126;20.664;2023-05-03T11:31:05;101311.06;;;13.60;50.18
55759;BME280;41678;52.126;20.664;2023-05-03T11:36:26;101318.94;;;13.68;50.19
55759;BME280;41678;52.126;20.664;2023-05-03T11:42:00;101316.25;;;13.71;49.73
55759;BME280;41678;52.126;20.664;2023-05-03T11:47:22;101314.47;;;13.75;50.55
55759;BME280;41678;52.126;20.664;2023-05-03T11:52:42;101314.41;;;13.80;50.55
55759;BME280;41678;52.126;20.664;2023-05-03T11:58:17;101325.00;;;13.83;49.24
55759;BME280;41678;52.126;20.664;2023-05-03T12:03:37;101316.19;;;13.79;49.08
55759;BME280;41678;52.126;20.664;2023-05-03T12:08:58;101324.16;;;13.81;49.42
55759;BME280;41678;52.126;20.664;2023-05-03T12:14:18;101322.41;;;13.75;49.86
55759;BME280;41678;52.126;20.664;2023-05-03T12:19:39;101314.47;;;13.73;49.55
55759;BME280;41678;52.126;20.664;2023-05-03T12:24:59;101305.63;;;13.81;49.92
55759;BME280;41678;52.126;20.664;2023-05-03T12:30:19;101305.63;;;13.81;50.61
55759;BME280;41678;52.126;20.664;2023-05-03T12:35:40;101299.34;;;13.88;49.45
55759;BME280;41678;52.126;20.664;2023-05-03T12:41:00;101286.06;;;13.97;49.28
55759;BME280;41678;52.126;20.664;2023-05-03T12:46:20;101291.28;;;14.02;49.23
55759;BME280;41678;52.126;20.664;2023-05-03T12:51:40;101296.53;;;14.07;49.69
55759;BME280;41678;52.126;20.664;2023-05-03T12:57:00;101285.97;;;14.03;49.04
55759;BME280;41678;52.126;20.664;2023-05-03T13:02:22;101289.47;;;14.07;48.90
55759;BME280;41678;52.126;20.664;2023-05-03T13:07:42;101279.81;;;14.01;47.34
55759;BME280;41678;52.126;20.664;2023-05-03T13:13:02;101284.25;;;13.98;48.24
55759;BME280;41678;52.126;20.664;2023-05-03T13:18:22;101287.84;;;13.94;47.46
55759;BME280;41678;52.126;20.664;2023-05-03T13:23:41;101280.88;;;13.83;48.58
55759;BME280;41678;52.126;20.664;2023-05-03T13:29:02;101266.78;;;13.81;48.59
55759;BME280;41678;52.126;20.664;2023-05-03T13:34:23;101271.28;;;13.73;48.92
55759;BME280;41678;52.126;20.664;2023-05-03T13:39:43;101269.56;;;13.67;49.25
55759;BME280;41678;52.126;20.664;2023-05-03T13:45:06;101261.59;;;13.70;48.84
55759;BME280;41678;52.126;20.664;2023-05-03T13:50:28;101260.72;;;13.68;48.79
55759;BME280;41678;52.126;20.664;2023-05-03T13:55:48;101261.59;;;13.70;48.78
55759;BME280;41678;52.126;20.664;2023-05-03T14:01:08;101255.47;;;13.65;49.14
55759;BME280;41678;52.126;20.664;2023-05-03T14:06:28;101258.13;;;13.65;48.83
55759;BME280;41678;52.126;20.664;2023-05-03T14:11:48;101255.50;;;13.60;48.67
55759;BME280;41678;52.126;20.664;2023-05-03T14:17:07;101258.13;;;13.65;48.22
55759;BME280;41678;52.126;20.664;2023-05-03T14:22:28;101252.00;;;13.57;48.85
55759;BME280;41678;52.126;20.664;2023-05-03T14:27:47;101253.72;;;13.61;48.54
55759;BME280;41678;52.126;20.664;2023-05-03T14:33:08;101244.03;;;13.62;48.25
55759;BME280;41678;52.126;20.664;2023-05-03T14:38:29;101248.34;;;13.70;47.80
55759;BME280;41678;52.126;20.664;2023-05-03T14:43:49;101252.69;;;13.78;47.16
55759;BME280;41678;52.126;20.664;2023-05-03T14:49:08;101245.75;;;13.67;47.97
55759;BME280;41678;52.126;20.664;2023-05-03T15:02:14;101257.97;;;13.81;47.62
55759;BME280;41678;52.126;20.664;2023-05-03T15:07:34;101252.69;;;13.81;47.69
55759;BME280;41678;52.126;20.664;2023-05-03T15:12:54;101250.88;;;13.83;47.62
55759;BME280;41678;52.126;20.664;2023-05-03T15:18:14;101255.25;;;13.85;47.89
55759;BME280;41678;52.126;20.664;2023-05-03T15:23:36;101257.00;;;13.90;47.75
55759;BME280;41678;52.126;20.664;2023-05-03T15:28:56;101257.81;;;13.93;45.80
55759;BME280;41678;52.126;20.664;2023-05-03T15:34:16;101262.25;;;13.93;46.05
55759;BME280;41678;52.126;20.664;2023-05-03T15:39:36;101264.88;;;13.97;45.75
55759;BME280;41678;52.126;20.664;2023-05-03T15:44:56;101260.50;;;13.90;46.13
55759;BME280;41678;52.126;20.664;2023-05-03T15:50:16;101257.81;;;13.96;45.51
55759;BME280;41678;52.126;20.664;2023-05-03T15:55:36;101263.13;;;13.96;46.02
55759;BME280;41678;52.126;20.664;2023-05-03T16:00:56;101269.22;;;14.01;45.44
55759;BME280;41678;52.126;20.664;2023-05-03T16:06:17;101265.69;;;14.02;45.95
55759;BME280;41678;52.126;20.664;2023-05-03T16:11:37;101255.09;;;14.01;45.50
55759;BME280;41678;52.126;20.664;2023-05-03T16:16:57;101258.69;;;13.98;45.60
55759;BME280;41678;52.126;20.664;2023-05-03T16:22:18;101266.53;;;14.06;46.02
55759;BME280;41678;52.126;20.664;2023-05-03T16:27:38;101263.78;;;14.15;46.73
55759;BME280;41678;52.126;20.664;2023-05-03T16:33:01;101257.56;;;14.20;44.93
55759;BME280;41678;52.126;20.664;2023-05-03T16:38:21;101258.38;;;14.26;45.20
55759;BME280;41678;52.126;20.664;2023-05-03T16:43:42;101264.50;;;14.31;45.28
55759;BME280;41678;52.126;20.664;2023-05-03T16:56:43;101273.47;;;14.20;44.61
55759;BME280;41678;52.126;20.664;2023-05-03T17:02:03;101266.38;;;14.22;44.98
55759;BME280;41678;52.126;20.664;2023-05-03T17:07:26;101275.31;;;14.10;44.56
55759;BME280;41678;52.126;20.664;2023-05-03T17:12:46;101270.13;;;14.00;44.58
55759;BME280;41678;52.126;20.664;2023-05-03T17:18:06;101277.28;;;13.89;44.64
55759;BME280;41678;52.126;20.664;2023-05-03T17:23:27;101274.72;;;13.80;44.82
55759;BME280;41678;52.126;20.664;2023-05-03T17:28:49;101283.69;;;13.66;45.33
55759;BME280;41678;52.126;20.664;2023-05-03T17:34:10;101273.16;;;13.55;45.55
55759;BME280;41678;52.126;20.664;2023-05-03T17:39:30;101282.94;;;13.41;45.72
55759;BME280;41678;52.126;20.664;2023-05-03T17:44:50;101280.41;;;13.27;46.37
55759;BME280;41678;52.126;20.664;2023-05-03T17:50:11;101280.53;;;13.08;46.95
55759;BME280;41678;52.126;20.664;2023-05-03T17:55:35;101298.19;;;13.01;47.03
55759;BME280;41678;52.126;20.664;2023-05-03T18:00:56;101303.53;;;12.87;47.15
55759;BME280;41678;52.126;20.664;2023-05-03T18:06:16;101293.91;;;12.71;47.79
55759;BME280;41678;52.126;20.664;2023-05-03T18:11:37;101310.69;;;12.57;48.38
55759;BME280;41678;52.126;20.664;2023-05-03T18:16:58;101311.63;;;12.50;48.75
55759;BME280;41678;52.126;20.664;2023-05-03T18:22:18;101309.88;;;12.35;48.76
55759;BME280;41678;52.126;20.664;2023-05-03T18:27:37;101313.44;;;12.23;48.82
55759;BME280;41678;52.126;20.664;2023-05-03T18:32:58;101319.63;;;12.08;49.34
55759;BME280;41678;52.126;20.664;2023-05-03T18:38:19;101316.97;;;11.91;49.46
55759;BME280;41678;52.126;20.664;2023-05-03T18:43:44;101320.50;;;11.77;49.73
55759;BME280;41678;52.126;20.664;2023-05-03T18:49:04;101316.97;;;11.60;50.20
55759;BME280;41678;52.126;20.664;2023-05-03T18:54:24;101323.09;;;11.43;50.34
55759;BME280;41678;52.126;20.664;2023-05-03T18:59:44;101318.66;;;11.28;50.26
55759;BME280;41678;52.126;20.664;2023-05-03T19:05:04;101327.41;;;11.09;50.59
55759;BME280;41678;52.126;20.664;2023-05-03T19:10:23;101326.50;;;10.96;50.48
55759;BME280;41678;52.126;20.664;2023-05-03T19:15:43;101324.66;;;10.74;50.72
55759;BME280;41678;52.126;20.664;2023-05-03T19:21:03;101325.50;;;10.62;50.98
55759;BME280;41678;52.126;20.664;2023-05-03T19:26:23;101328.03;;;10.45;51.19
55759;BME280;41678;52.126;20.664;2023-05-03T19:31:43;101336.66;;;10.27;50.98
55759;BME280;41678;52.126;20.664;2023-05-03T19:37:03;101338.34;;;10.14;51.32
55759;BME280;41678;52.126;20.664;2023-05-03T19:42:23;101339.13;;;10.04;51.59
55759;BME280;41678;52.126;20.664;2023-05-03T19:47:43;101340.81;;;9.94;51.89
55759;BME280;41678;52.126;20.664;2023-05-03T19:53:03;101339.84;;;9.81;51.83
55759;BME280;41678;52.126;20.664;2023-05-03T19:58:23;101338.88;;;9.71;51.80
55759;BME280;41678;52.126;20.664;2023-05-03T20:03:43;101340.56;;;9.64;52.25
55759;BME280;41678;52.126;20.664;2023-05-03T20:09:03;101343.88;;;9.43;52.57
55759;BME280;41678;52.126;20.664;2023-05-03T20:14:24;101340.25;;;9.32;52.24
55759;BME280;41678;52.126;20.664;2023-05-03T20:19:46;101334.84;;;9.19;52.58
55759;BME280;41678;52.126;20.664;2023-05-03T20:25:08;101340.81;;;9.06;53.17
55759;BME280;41678;52.126;20.664;2023-05-03T20:30:28;101339.81;;;8.95;53.17
55759;BME280;41678;52.126;20.664;2023-05-03T20:35:49;101346.69;;;8.83;53.08
55759;BME280;41678;52.126;20.664;2023-05-03T20:41:09;101341.25;;;8.68;53.60
55759;BME280;41678;52.126;20.664;2023-05-03T20:46:29;101345.53;;;8.61;53.95
55759;BME280;41678;52.126;20.664;2023-05-03T20:51:49;101341.91;;;8.53;53.46
55759;BME280;41678;52.126;20.664;2023-05-03T20:57:12;101345.16;;;8.38;54.05
55759;BME280;41678;52.126;20.664;2023-05-03T21:02:34;101345.06;;;8.30;54.09
55759;BME280;41678;52.126;20.664;2023-05-03T21:07:54;101341.38;;;8.18;54.38
55759;BME280;41678;52.126;20.664;2023-05-03T21:13:14;101335.13;;;8.10;54.36
55759;BME280;41678;52.126;20.664;2023-05-03T21:18:33;101327.06;;;7.96;55.14
55759;BME280;41678;52.126;20.664;2023-05-03T21:23:54;101337.38;;;7.85;55.43
55759;BME280;41678;52.126;20.664;2023-05-03T21:29:14;101337.31;;;7.82;54.55
55759;BME280;41678;52.126;20.664;2023-05-03T21:34:35;101336.22;;;7.68;55.56
55759;BME280;41678;52.126;20.664;2023-05-03T21:39:58;101327.41;;;7.65;55.61
55759;BME280;41678;52.126;20.664;2023-05-03T21:45:18;101323.91;;;7.65;54.86
55759;BME280;41678;52.126;20.664;2023-05-03T21:50:38;101326.31;;;7.53;55.56
55759;BME280;41678;52.126;20.664;2023-05-03T21:55:58;101318.22;;;7.40;55.56
55759;BME280;41678;52.126;20.664;2023-05-03T22:01:17;101332.09;;;7.33;55.51
55759;BME280;41678;52.126;20.664;2023-05-03T22:06:40;101334.56;;;7.27;55.62
55759;BME280;41678;52.126;20.664;2023-05-03T22:12:00;101336.13;;;7.17;56.18
55759;BME280;41678;52.126;20.664;2023-05-03T22:17:20;101336.03;;;7.11;55.73
55759;BME280;41678;52.126;20.664;2023-05-03T22:22:39;101329.69;;;6.98;56.14
55759;BME280;41678;52.126;20.664;2023-05-03T22:27:59;101320.78;;;6.89;56.04
55759;BME280;41678;52.126;20.664;2023-05-03T22:33:19;101334.50;;;6.79;57.07
55759;BME280;41678;52.126;20.664;2023-05-03T22:38:39;101335.25;;;6.72;57.15
55759;BME280;41678;52.126;20.664;2023-05-03T22:43:59;101328.84;;;6.57;57.36
55759;BME280;41678;52.126;20.664;2023-05-03T22:49:19;101334.72;;;6.47;57.70
55759;BME280;41678;52.126;20.664;2023-05-03T22:54:39;101336.41;;;6.45;57.47
55759;BME280;41678;52.126;20.664;2023-05-03T22:59:59;101333.69;;;6.40;56.78
55759;BME280;41678;52.126;20.664;2023-05-03T23:05:19;101339.59;;;6.31;57.08
55759;BME280;41678;52.126;20.664;2023-05-03T23:10:39;101335.84;;;6.20;57.96
55759;BME280;41678;52.126;20.664;2023-05-03T23:16:00;101338.31;;;6.14;57.91
55759;BME280;41678;52.126;20.664;2023-05-03T23:21:20;101331.25;;;6.09;57.13
55759;BME280;41678;52.126;20.664;2023-05-03T23:26:39;101332.91;;;6.06;57.15
55759;BME280;41678;52.126;20.664;2023-05-03T23:31:59;101334.41;;;5.96;57.49
55759;BME280;41678;52.126;20.664;2023-05-03T23:37:19;101322.84;;;5.86;58.34
55759;BME280;41678;52.126;20.664;2023-05-03T23:42:39;101327.16;;;5.84;57.55
55759;BME280;41678;52.126;20.664;2023-05-03T23:47:59;101320.69;;;5.70;58.67
55759;BME280;41678;52.126;20.664;2023-05-03T23:53:19;101313.66;;;5.67;58.76
55759;BME280;41678;52.126;20.664;2023-05-03T23:58:38;101316.00;;;5.58;58.24
